Time;durP1;ratioP1;P1;durP2;ratioP2;P2;SDS_P1;SDS_P2;PMS_P1;PMS_P2;Temp;Humidity;BMP_temperature;BMP_pressure;BME280_temperature;BME280_humidity;BME280_pressure;Samples;Min_cycle;Max_cycle;Signal;HPM_P1;HPM_P2
2022/07/01 00:00:48;;;;;;;0.40;0.40;;;20.10;96.00;;;;;;5050506;28;20450;-69
2022/07/01 00:03:13;;;;;;;0.50;0.47;;;20.10;95.90;;;;;;5030519;28;20228;-68
2022/07/01 00:05:40;;;;;;;0.80;0.80;;;20.10;96.10;;;;;;5049019;28;20204;-69
2022/07/01 00:08:05;;;;;;;0.43;0.43;;;20.10;96.00;;;;;;5049897;28;20285;-69
2022/07/01 00:10:31;;;;;;;0.60;0.60;;;20.10;96.10;;;;;;5053521;28;20478;-69
2022/07/01 00:12:57;;;;;;;0.80;0.80;;;20.00;96.30;;;;;;5032783;28;20246;-69
2022/07/01 00:15:23;;;;;;;0.63;0.50;;;19.80;96.40;;;;;;5050085;28;20989;-69
2022/07/01 00:17:49;;;;;;;0.83;0.70;;;19.80;96.50;;;;;;5048862;28;20204;-70
2022/07/01 00:20:16;;;;;;;0.70;0.60;;;19.90;96.60;;;;;;5049644;28;20223;-69
2022/07/01 00:22:43;;;;;;;0.50;0.50;;;19.90;96.70;;;;;;5048882;28;20216;-69
2022/07/01 00:25:09;;;;;;;0.60;0.57;;;19.90;96.90;;;;;;5048993;28;20454;-69
2022/07/01 00:27:41;;;;;;;1.43;0.40;;;19.90;96.70;;;;;;5049521;28;20443;-70
2022/07/01 00:30:09;;;;;;;0.80;0.70;;;20.00;96.70;;;;;;5032183;28;20459;-69
2022/07/01 00:32:35;;;;;;;1.03;0.80;;;20.00;96.90;;;;;;5048027;28;20450;-69
2022/07/01 00:35:01;;;;;;;0.83;0.67;;;20.10;96.60;;;;;;5029294;28;20534;-69
2022/07/01 00:37:27;;;;;;;0.77;0.77;;;20.20;96.40;;;;;;5047973;28;20542;-70
2022/07/01 00:39:52;;;;;;;1.83;0.70;;;20.20;96.30;;;;;;5031646;28;20216;-69
2022/07/01 00:42:18;;;;;;;0.70;0.70;;;20.20;96.40;;;;;;5048695;28;20212;-69
2022/07/01 00:44:44;;;;;;;0.87;0.70;;;20.20;96.10;;;;;;5028807;28;20217;-69
2022/07/01 00:47:13;;;;;;;1.37;0.70;;;20.30;96.40;;;;;;5048871;28;20212;-69
2022/07/01 00:49:39;;;;;;;0.80;0.63;;;20.30;96.20;;;;;;5040654;28;20234;-69
2022/07/01 00:52:07;;;;;;;0.60;0.60;;;20.20;96.50;;;;;;5050285;28;20526;-70
2022/07/01 00:54:35;;;;;;;0.60;0.60;;;20.20;96.60;;;;;;5047491;28;20544;-68
2022/07/01 00:57:07;;;;;;;0.50;0.50;;;20.00;96.80;;;;;;5048215;28;20458;-70
2022/07/01 00:59:34;;;;;;;0.50;0.50;;;19.90;97.00;;;;;;5047709;28;20525;-69
2022/07/01 01:02:00;;;;;;;0.60;0.60;;;19.80;97.10;;;;;;5031860;28;20442;-69
2022/07/01 01:04:26;;;;;;;0.60;0.60;;;19.70;97.20;;;;;;5048321;28;20481;-69
2022/07/01 01:06:51;;;;;;;0.60;0.60;;;19.60;97.40;;;;;;5043236;28;20582;-70
2022/07/01 01:09:17;;;;;;;0.70;0.70;;;19.60;97.40;;;;;;5037071;28;20302;-69
2022/07/01 01:11:43;;;;;;;2.00;0.80;;;19.70;97.50;;;;;;5047853;28;20626;-70
2022/07/01 01:14:09;;;;;;;0.60;0.60;;;19.70;97.70;;;;;;5047002;28;20234;-69
2022/07/01 01:16:35;;;;;;;0.70;0.70;;;19.60;97.80;;;;;;5030616;28;20212;-69
2022/07/01 01:19:05;;;;;;;0.50;0.50;;;19.50;97.90;;;;;;5049266;28;20578;-70
2022/07/01 01:21:32;;;;;;;3.23;0.60;;;19.40;98.20;;;;;;5041958;28;20465;-69
2022/07/01 01:23:58;;;;;;;0.60;0.57;;;19.20;98.40;;;;;;5029727;28;20449;-69
2022/07/01 01:26:25;;;;;;;3.20;0.60;;;19.10;98.70;;;;;;5048001;28;20530;-69
2022/07/01 01:28:51;;;;;;;0.50;0.50;;;19.10;98.90;;;;;;5048909;28;22781;-69
2022/07/01 01:31:28;;;;;;;0.90;0.60;;;19.00;99.00;;;;;;5041381;28;20680;-69
2022/07/01 01:33:54;;;;;;;1.73;0.87;;;19.10;99.00;;;;;;5029082;28;20911;-69
2022/07/01 01:36:19;;;;;;;0.53;0.53;;;19.00;99.10;;;;;;5044037;28;20457;-69
2022/07/01 01:38:45;;;;;;;0.80;0.60;;;19.10;99.20;;;;;;5047554;28;20218;-69
2022/07/01 01:41:11;;;;;;;0.60;0.60;;;19.10;99.20;;;;;;5026534;28;20295;-69
2022/07/01 01:43:37;;;;;;;0.60;0.50;;;19.00;99.20;;;;;;5038124;28;20667;-70
2022/07/01 01:46:03;;;;;;;0.67;0.67;;;19.00;99.40;;;;;;5049020;28;20569;-69
2022/07/01 01:48:30;;;;;;;0.60;0.40;;;18.90;99.50;;;;;;5035692;28;20216;-69
2022/07/01 01:50:56;;;;;;;0.57;0.57;;;18.90;99.60;;;;;;5052749;28;20430;-69
2022/07/01 01:53:22;;;;;;;0.60;0.60;;;18.70;99.70;;;;;;5052906;28;20454;-69
2022/07/01 01:55:48;;;;;;;1.23;0.70;;;18.70;99.90;;;;;;5046516;28;20458;-69
2022/07/01 01:58:13;;;;;;;0.97;0.67;;;18.70;99.90;;;;;;5045913;28;20445;-70
2022/07/01 02:00:39;;;;;;;1.87;0.80;;;18.60;99.90;;;;;;5049587;28;20641;-69
2022/07/01 02:03:05;;;;;;;0.60;0.50;;;18.60;99.90;;;;;;5051986;28;20618;-69
2022/07/01 02:05:31;;;;;;;1.47;0.50;;;18.50;99.90;;;;;;5050484;28;20257;-69
2022/07/01 02:07:56;;;;;;;0.80;0.70;;;18.40;99.90;;;;;;5022701;28;20234;-69
2022/07/01 02:10:22;;;;;;;0.77;0.50;;;18.40;99.90;;;;;;5052574;28;20722;-69
2022/07/01 02:12:48;;;;;;;1.10;1.00;;;18.30;99.90;;;;;;5034824;28;20229;-69
2022/07/01 02:15:13;;;;;;;0.60;0.50;;;18.30;99.90;;;;;;5049504;28;20227;-69
2022/07/01 02:17:39;;;;;;;0.70;0.70;;;18.20;99.90;;;;;;5048398;28;20232;-68
2022/07/01 02:20:05;;;;;;;1.17;0.50;;;18.10;99.90;;;;;;5034834;28;20327;-69
2022/07/01 02:22:31;;;;;;;0.70;0.70;;;18.20;99.90;;;;;;5050772;28;20212;-70
2022/07/01 02:24:57;;;;;;;0.97;0.90;;;18.20;99.90;;;;;;5040860;28;20465;-69
2022/07/01 02:27:22;;;;;;;0.50;0.50;;;18.20;99.90;;;;;;5048924;28;20222;-68
2022/07/01 02:29:48;;;;;;;1.63;0.83;;;18.20;99.90;;;;;;5040555;28;20224;-69
2022/07/01 02:32:14;;;;;;;1.07;0.90;;;18.10;99.90;;;;;;5051849;28;20231;-69
2022/07/01 02:34:39;;;;;;;2.67;0.60;;;18.10;99.90;;;;;;5050940;28;20223;-69
2022/07/01 02:37:05;;;;;;;1.53;0.63;;;18.00;99.90;;;;;;5041647;28;20227;-68
2022/07/01 02:39:33;;;;;;;0.80;0.63;;;17.90;99.90;;;;;;5050359;28;20247;-69
2022/07/01 02:44:42;;;;;;;0.77;0.77;;;17.80;99.90;;;;;;5046477;28;20458;-69
2022/07/01 02:47:08;;;;;;;0.77;0.70;;;17.80;99.90;;;;;;5031305;28;20450;-69
2022/07/01 02:49:34;;;;;;;0.70;0.70;;;17.70;99.90;;;;;;5050667;28;20216;-69
2022/07/01 02:51:59;;;;;;;0.90;0.80;;;17.70;99.90;;;;;;5034627;28;20238;-69
2022/07/01 02:54:25;;;;;;;1.00;0.80;;;17.80;99.90;;;;;;5050454;28;20226;-68
2022/07/01 02:56:51;;;;;;;1.60;0.70;;;17.70;99.90;;;;;;5046056;28;24963;-69
2022/07/01 02:59:16;;;;;;;0.73;0.70;;;17.60;99.90;;;;;;5050752;28;20215;-69
2022/07/01 03:01:42;;;;;;;0.73;0.73;;;17.60;99.90;;;;;;5050399;28;20204;-70
2022/07/01 03:04:08;;;;;;;0.80;0.80;;;17.60;99.90;;;;;;5052046;28;20755;-69
2022/07/01 03:06:33;;;;;;;0.93;0.70;;;17.60;99.90;;;;;;5051758;28;20211;-69
2022/07/01 03:08:59;;;;;;;0.70;0.70;;;17.60;99.90;;;;;;5043190;28;20204;-69
2022/07/01 03:11:25;;;;;;;4.03;1.43;;;17.60;99.90;;;;;;5050134;28;20277;-69
2022/07/01 03:13:50;;;;;;;1.07;0.90;;;17.50;99.90;;;;;;5049732;28;20240;-69
2022/07/01 03:16:16;;;;;;;0.80;0.80;;;17.50;99.90;;;;;;5050500;28;20232;-68
2022/07/01 03:18:42;;;;;;;0.73;0.73;;;17.50;99.90;;;;;;5049633;28;20215;-69
2022/07/01 03:21:07;;;;;;;0.87;0.70;;;17.50;99.90;;;;;;5033908;28;20224;-69
2022/07/01 03:23:33;;;;;;;0.70;0.70;;;17.60;99.90;;;;;;5041501;28;20214;-68
2022/07/01 03:25:59;;;;;;;0.80;0.80;;;17.50;99.90;;;;;;5047344;28;20223;-69
2022/07/01 03:28:24;;;;;;;2.97;0.80;;;17.40;99.90;;;;;;5046590;28;20231;-68
2022/07/01 03:30:50;;;;;;;0.70;0.70;;;17.50;99.90;;;;;;5045277;28;20231;-70
2022/07/01 03:33:15;;;;;;;0.67;0.67;;;17.50;99.90;;;;;;5046797;28;20230;-69
2022/07/01 03:35:45;;;;;;;1.03;1.00;;;17.50;99.90;;;;;;5044495;28;20329;-69
2022/07/01 03:38:11;;;;;;;0.90;0.87;;;17.50;99.90;;;;;;5044219;28;20553;-69
2022/07/01 03:40:38;;;;;;;1.20;0.80;;;17.40;99.90;;;;;;5044818;28;20480;-69
2022/07/01 03:43:04;;;;;;;0.80;0.80;;;17.50;99.90;;;;;;5044990;28;21000;-69
2022/07/01 03:45:30;;;;;;;1.63;0.83;;;17.50;99.90;;;;;;5048134;28;20458;-69
2022/07/01 03:47:56;;;;;;;0.80;0.80;;;17.50;99.90;;;;;;5027262;28;20442;-69
2022/07/01 03:50:23;;;;;;;0.80;0.73;;;17.50;99.90;;;;;;5026145;28;21076;-69
2022/07/01 03:54:29;;;;;;;0.70;0.70;;;17.50;99.90;;;;;;5023982;28;20219;-69
2022/07/01 03:55:35;;;;;;;0.80;0.80;;;17.60;99.90;;;;;;5045335;28;20553;-69
2022/07/01 03:58:01;;;;;;;0.87;0.87;;;17.50;99.90;;;;;;5045677;28;20458;-69
2022/07/01 04:00:28;;;;;;;1.30;0.97;;;17.40;99.90;;;;;;5043959;28;20503;-69
2022/07/01 04:02:53;;;;;;;0.90;0.90;;;17.30;99.90;;;;;;5043574;28;20215;-69
2022/07/01 04:05:19;;;;;;;1.50;1.10;;;17.20;99.90;;;;;;5047522;28;20469;-69
2022/07/01 04:07:45;;;;;;;0.80;0.80;;;17.20;99.90;;;;;;5024242;28;20212;-69
2022/07/01 04:10:12;;;;;;;1.10;1.00;;;17.20;99.90;;;;;;5033456;28;20221;-69
2022/07/01 04:12:38;;;;;;;1.53;0.70;;;17.20;99.90;;;;;;5027190;28;20327;-69
2022/07/01 04:15:04;;;;;;;1.03;0.67;;;17.20;99.90;;;;;;5030286;28;20478;-69
2022/07/01 04:17:30;;;;;;;2.77;0.90;;;17.30;99.90;;;;;;5024823;28;20482;-69
2022/07/01 04:19:56;;;;;;;1.10;0.70;;;17.30;99.90;;;;;;5043859;28;20460;-69
2022/07/01 04:22:35;;;;;;;0.93;0.90;;;17.30;99.90;;;;;;5039669;28;20228;-69
2022/07/01 04:25:03;;;;;;;0.80;0.80;;;17.30;99.90;;;;;;5017729;28;20619;-69
2022/07/01 04:27:30;;;;;;;2.83;0.87;;;17.40;99.90;;;;;;5046279;28;20453;-69
2022/07/01 04:29:56;;;;;;;2.13;1.00;;;17.30;99.90;;;;;;5044078;28;20449;-69
2022/07/01 04:32:22;;;;;;;1.47;1.37;;;17.30;99.90;;;;;;5035070;28;20463;-69
2022/07/01 04:34:48;;;;;;;1.13;1.03;;;17.30;99.90;;;;;;5029441;28;20989;-69
2022/07/01 04:37:13;;;;;;;1.20;0.97;;;17.30;99.90;;;;;;5044015;28;20216;-69
2022/07/01 04:39:39;;;;;;;0.63;0.63;;;17.30;99.90;;;;;;5025149;28;20231;-69
2022/07/01 04:42:05;;;;;;;1.53;1.03;;;17.20;99.90;;;;;;5028911;28;20220;-69
2022/07/01 04:44:36;;;;;;;2.07;1.40;;;17.20;99.90;;;;;;5066057;28;20491;-69
2022/07/01 04:47:03;;;;;;;2.10;1.20;;;17.10;99.90;;;;;;5051044;28;20215;-69
2022/07/01 04:49:29;;;;;;;1.30;1.20;;;17.10;99.90;;;;;;5049603;28;20465;-69
2022/07/01 04:51:56;;;;;;;0.97;0.97;;;17.10;99.90;;;;;;5063084;28;20454;-69
2022/07/01 04:54:22;;;;;;;2.20;1.20;;;17.20;99.90;;;;;;5037572;28;20857;-69
2022/07/01 04:56:48;;;;;;;1.37;0.93;;;17.10;99.90;;;;;;5042087;28;20455;-69
2022/07/01 04:59:15;;;;;;;1.40;1.20;;;17.20;99.90;;;;;;5046087;28;20290;-69
2022/07/01 05:01:42;;;;;;;1.67;1.00;;;17.10;99.90;;;;;;5045497;28;20449;-70
2022/07/01 05:04:08;;;;;;;1.10;1.10;;;17.20;99.90;;;;;;5046459;28;20866;-69
2022/07/01 05:06:34;;;;;;;1.20;1.10;;;17.20;99.90;;;;;;5045862;28;20457;-69
2022/07/01 05:09:00;;;;;;;1.33;1.20;;;17.20;99.90;;;;;;5048059;28;20545;-69
2022/07/01 05:11:26;;;;;;;1.37;1.27;;;17.20;99.90;;;;;;5039067;28;20219;-69
2022/07/01 05:13:52;;;;;;;1.17;1.07;;;17.20;99.90;;;;;;5040065;28;20454;-68
2022/07/01 05:16:18;;;;;;;1.90;1.43;;;17.20;99.90;;;;;;5044562;28;20262;-69
2022/07/01 05:24:13;;;;;;;1.20;1.10;;;17.10;99.90;;;;;;5043434;28;20455;-69
2022/07/01 05:26:39;;;;;;;1.90;1.60;;;17.10;99.90;;;;;;5043467;28;20465;-70
2022/07/01 05:29:05;;;;;;;2.60;1.40;;;17.10;99.90;;;;;;5000582;28;20304;-68
2022/07/01 05:31:30;;;;;;;2.10;1.23;;;17.10;99.90;;;;;;5023130;28;20702;-69
2022/07/01 05:33:56;;;;;;;2.00;1.57;;;17.10;99.90;;;;;;5046628;28;20460;-68
2022/07/01 05:36:22;;;;;;;1.90;1.53;;;17.10;99.90;;;;;;5045773;28;20251;-69
2022/07/01 05:38:47;;;;;;;1.97;1.87;;;17.20;99.90;;;;;;5039364;28;20216;-70
2022/07/01 05:41:13;;;;;;;1.70;1.60;;;17.20;99.90;;;;;;5034849;28;20273;-69
2022/07/01 05:43:39;;;;;;;1.80;1.70;;;17.20;99.90;;;;;;5027548;28;20223;-69
2022/07/01 05:46:04;;;;;;;2.00;1.80;;;17.20;99.90;;;;;;5035352;28;20216;-69
2022/07/01 05:48:30;;;;;;;1.90;1.77;;;17.20;99.90;;;;;;5037869;28;20358;-69
2022/07/01 05:50:56;;;;;;;2.77;2.13;;;17.20;99.90;;;;;;5018710;28;20231;-69
2022/07/01 05:53:22;;;;;;;1.93;1.63;;;17.20;99.90;;;;;;5024312;28;20232;-70
2022/07/01 05:55:48;;;;;;;1.60;1.50;;;17.30;99.90;;;;;;5021880;28;20236;-68
2022/07/01 05:58:14;;;;;;;1.77;1.67;;;17.40;99.90;;;;;;5035976;28;20226;-69
2022/07/01 06:00:44;;;;;;;1.93;1.67;;;17.40;99.90;;;;;;5040557;28;20266;-69
2022/07/01 06:03:11;;;;;;;4.27;1.67;;;17.50;99.90;;;;;;5033136;28;20462;-69
2022/07/01 06:05:37;;;;;;;1.37;1.27;;;17.50;99.90;;;;;;5012396;28;20494;-69
2022/07/01 06:08:04;;;;;;;2.90;1.83;;;17.50;99.90;;;;;;5038701;28;20459;-69
2022/07/01 06:10:30;;;;;;;1.40;1.30;;;17.50;99.90;;;;;;5036514;28;20241;-70
2022/07/01 06:12:56;;;;;;;1.70;1.60;;;17.50;99.90;;;;;;5033056;28;20491;-69
2022/07/01 06:15:22;;;;;;;1.67;1.43;;;17.60;99.90;;;;;;5043356;28;20266;-70
2022/07/01 06:17:49;;;;;;;3.77;1.40;;;17.60;99.90;;;;;;5039682;28;20250;-68
2022/07/01 06:20:15;;;;;;;1.90;1.80;;;17.60;99.90;;;;;;5038198;28;20236;-69
2022/07/01 06:22:41;;;;;;;4.83;1.67;;;17.70;99.90;;;;;;5021540;28;20459;-69
2022/07/01 06:25:07;;;;;;;8.53;1.53;;;17.70;99.90;;;;;;5034964;28;20986;-69
2022/07/01 06:27:39;;;;;;;1.93;1.83;;;17.70;99.90;;;;;;5036148;28;20212;-69
2022/07/01 06:30:05;;;;;;;1.50;1.30;;;17.60;99.90;;;;;;5042987;28;20533;-69
2022/07/01 06:32:31;;;;;;;1.20;1.10;;;17.60;99.90;;;;;;5046759;28;20537;-69
2022/07/01 06:34:57;;;;;;;1.40;1.30;;;17.60;99.90;;;;;;5042913;28;20478;-69
2022/07/01 06:37:22;;;;;;;1.37;1.27;;;17.60;99.90;;;;;;5042092;28;20224;-68
2022/07/01 06:39:48;;;;;;;1.67;1.57;;;17.60;99.90;;;;;;5027341;28;20433;-68
2022/07/01 06:42:14;;;;;;;1.60;1.30;;;17.80;99.90;;;;;;5047222;28;20758;-69
2022/07/01 06:44:42;;;;;;;2.70;1.67;;;17.80;99.90;;;;;;5040726;28;20219;-69
2022/07/01 06:47:08;;;;;;;1.67;1.57;;;17.80;99.90;;;;;;5035900;28;20465;-69
2022/07/01 06:49:34;;;;;;;2.50;1.80;;;17.80;99.90;;;;;;5046299;28;20307;-68
2022/07/01 06:52:00;;;;;;;4.63;1.43;;;17.80;99.90;;;;;;5042533;28;20277;-67
2022/07/01 06:54:28;;;;;;;3.13;1.63;;;17.70;99.90;;;;;;5043541;28;20295;-69
2022/07/01 06:56:54;;;;;;;1.53;1.43;;;17.70;99.90;;;;;;5042489;28;20305;-69
2022/07/01 06:59:20;;;;;;;1.67;1.57;;;17.70;99.90;;;;;;5047236;28;20450;-69
2022/07/01 07:01:46;;;;;;;4.83;1.33;;;17.70;99.90;;;;;;5034480;28;20492;-69
2022/07/01 07:04:11;;;;;;;1.60;1.50;;;17.80;99.90;;;;;;5051105;28;20251;-69
2022/07/01 07:06:37;;;;;;;2.30;1.50;;;17.90;99.90;;;;;;5029731;28;20586;-69
2022/07/01 07:09:03;;;;;;;1.53;1.20;;;17.90;99.90;;;;;;5044765;28;20243;-69
2022/07/01 07:11:28;;;;;;;2.33;1.70;;;17.90;99.90;;;;;;5050319;28;20226;-69
2022/07/01 07:13:54;;;;;;;3.20;1.20;;;17.90;99.90;;;;;;5035983;28;20222;-69
2022/07/01 07:16:20;;;;;;;1.67;1.30;;;18.00;99.90;;;;;;5051828;28;20232;-69
2022/07/01 07:18:47;;;;;;;1.50;1.40;;;18.00;99.90;;;;;;5035048;28;20572;-69
2022/07/01 07:21:13;;;;;;;1.60;1.50;;;18.00;99.90;;;;;;5050668;28;20459;-69
2022/07/01 07:23:39;;;;;;;2.13;1.50;;;18.00;99.90;;;;;;5036767;28;20466;-69
2022/07/01 07:26:04;;;;;;;1.30;1.20;;;18.00;99.90;;;;;;5049288;28;20220;-69
2022/07/01 07:28:30;;;;;;;2.17;1.40;;;18.00;99.90;;;;;;5051516;28;20231;-69
2022/07/01 07:30:56;;;;;;;2.50;2.30;;;18.00;99.90;;;;;;5033897;28;20626;-69
2022/07/01 07:33:22;;;;;;;2.30;2.10;;;18.10;99.90;;;;;;5058094;28;20247;-69
2022/07/01 07:35:48;;;;;;;1.77;1.67;;;18.10;99.90;;;;;;5049519;28;20228;-69
2022/07/01 07:38:14;;;;;;;2.77;1.83;;;18.00;99.90;;;;;;5049167;28;20457;-69
2022/07/01 07:40:40;;;;;;;1.77;1.67;;;18.00;99.90;;;;;;5041868;28;20208;-69
2022/07/01 07:43:07;;;;;;;2.50;2.00;;;18.10;99.90;;;;;;5045730;28;20224;-69
2022/07/01 07:45:33;;;;;;;1.50;1.40;;;18.10;99.90;;;;;;5050712;28;20450;-68
2022/07/01 07:48:00;;;;;;;5.73;2.03;;;18.10;99.90;;;;;;5049524;28;20523;-69
2022/07/01 07:50:26;;;;;;;3.73;2.00;;;18.10;99.90;;;;;;5044619;28;20470;-69
2022/07/01 07:52:52;;;;;;;1.70;1.40;;;18.10;99.90;;;;;;5050437;28;20496;-69
2022/07/01 07:55:18;;;;;;;2.27;1.97;;;18.00;99.90;;;;;;5050471;28;20471;-69
2022/07/01 07:57:44;;;;;;;3.13;1.73;;;18.00;99.90;;;;;;5032831;28;20253;-68
2022/07/01 08:00:12;;;;;;;1.70;1.60;;;18.00;99.90;;;;;;5049505;28;20215;-69
2022/07/01 08:02:39;;;;;;;1.63;1.53;;;18.00;99.90;;;;;;5046951;28;20243;-68
2022/07/01 08:05:05;;;;;;;1.53;1.43;;;18.00;99.90;;;;;;5045790;28;20446;-69
2022/07/01 08:07:36;;;;;;;1.43;1.33;;;18.10;99.90;;;;;;5059432;28;20969;-69
2022/07/01 08:10:06;;;;;;;1.53;1.20;;;18.10;99.90;;;;;;5039355;28;20479;-68
2022/07/01 08:12:32;;;;;;;1.60;1.50;;;18.10;99.90;;;;;;5043314;28;20458;-69
2022/07/01 08:14:58;;;;;;;1.60;1.50;;;18.10;99.90;;;;;;5039535;28;20463;-69
2022/07/01 08:17:24;;;;;;;1.63;1.53;;;18.10;99.90;;;;;;5041718;28;20617;-69
2022/07/01 08:19:50;;;;;;;1.60;1.50;;;18.00;99.90;;;;;;5045424;28;20477;-69
2022/07/01 08:22:16;;;;;;;2.77;2.57;;;17.90;99.90;;;;;;5041300;28;20216;-69
2022/07/01 08:24:42;;;;;;;3.03;1.53;;;17.90;99.90;;;;;;5037017;28;20295;-69
2022/07/01 08:27:08;;;;;;;1.67;1.57;;;17.90;99.90;;;;;;5040043;28;20507;-69
2022/07/01 08:29:33;;;;;;;1.70;1.60;;;18.00;99.90;;;;;;5037073;28;20579;-68
2022/07/01 08:32:00;;;;;;;1.90;1.70;;;18.00;99.90;;;;;;5030629;28;20212;-68
2022/07/01 08:34:26;;;;;;;2.10;1.90;;;18.10;99.90;;;;;;5044836;28;20458;-69
2022/07/01 08:36:52;;;;;;;1.70;1.60;;;18.00;99.90;;;;;;5045202;28;20751;-69
2022/07/01 08:39:18;;;;;;;1.80;1.70;;;18.00;99.90;;;;;;5031212;28;20213;-69
2022/07/01 08:41:43;;;;;;;1.50;1.40;;;18.00;99.90;;;;;;5042986;28;20213;-69
2022/07/01 08:44:09;;;;;;;1.80;1.70;;;18.10;99.90;;;;;;5044666;28;20582;-69
2022/07/01 08:46:35;;;;;;;2.13;1.70;;;18.10;99.90;;;;;;5025627;28;20208;-69
2022/07/01 08:49:02;;;;;;;4.57;1.70;;;18.20;99.90;;;;;;5020513;28;20471;-68
2022/07/01 08:51:28;;;;;;;1.27;1.27;;;18.20;99.90;;;;;;5049437;28;20498;-69
2022/07/01 08:53:54;;;;;;;1.80;1.53;;;18.30;99.90;;;;;;5050346;28;20463;-69
2022/07/01 08:59:06;;;;;;;1.67;1.57;;;18.30;99.90;;;;;;5039696;28;20277;-69
2022/07/01 09:01:33;;;;;;;1.90;1.70;;;18.30;99.90;;;;;;5039846;28;20454;-68
2022/07/01 09:04:17;;;;;;;2.60;1.60;;;18.30;99.90;;;;;;5037054;28;20533;-69
2022/07/01 09:06:43;;;;;;;2.17;1.70;;;18.30;99.90;;;;;;5027621;28;20525;-68
2022/07/01 09:09:16;;;;;;;3.60;1.80;;;18.30;99.90;;;;;;5015774;28;20487;-69
2022/07/01 09:11:54;;;;;;;1.60;1.50;;;18.40;99.90;;;;;;5037525;28;20977;-69
2022/07/01 09:14:24;;;;;;;1.80;1.70;;;18.40;99.90;;;;;;5036389;28;20481;-68
2022/07/01 09:16:51;;;;;;;2.97;1.60;;;18.50;99.90;;;;;;5037444;28;20478;-68
2022/07/01 09:19:19;;;;;;;1.83;1.30;;;18.50;99.90;;;;;;5039215;28;20550;-68
2022/07/01 09:21:59;;;;;;;1.77;1.67;;;18.60;99.90;;;;;;5043286;28;20447;-69
2022/07/01 09:24:30;;;;;;;2.20;1.90;;;18.60;99.90;;;;;;5026016;28;20459;-69
2022/07/01 09:27:03;;;;;;;1.70;1.60;;;18.60;99.90;;;;;;5029810;28;20438;-70
2022/07/01 09:29:34;;;;;;;2.37;1.83;;;18.70;99.90;;;;;;5037319;28;20501;-69
2022/07/01 09:32:05;;;;;;;2.50;1.40;;;18.70;99.90;;;;;;5029877;28;20454;-70
2022/07/01 09:34:45;;;;;;;2.30;1.73;;;18.70;99.90;;;;;;5036055;28;20474;-69
2022/07/01 09:37:12;;;;;;;2.90;1.87;;;18.70;99.90;;;;;;5039249;28;20525;-69
2022/07/01 09:39:43;;;;;;;3.13;1.60;;;18.70;99.90;;;;;;5043388;28;20507;-69
2022/07/01 09:42:09;;;;;;;2.07;1.30;;;18.80;99.90;;;;;;5040123;28;20545;-69
2022/07/01 09:44:35;;;;;;;2.07;1.67;;;18.80;99.90;;;;;;5039211;28;20537;-69
2022/07/01 09:47:01;;;;;;;1.43;1.33;;;18.90;99.90;;;;;;5034107;28;20286;-69
2022/07/01 09:49:28;;;;;;;1.53;1.43;;;18.90;99.90;;;;;;5040449;28;20660;-69
2022/07/01 09:51:54;;;;;;;2.00;1.67;;;19.00;99.90;;;;;;5036543;28;20962;-69
2022/07/01 09:54:20;;;;;;;4.13;1.40;;;19.00;99.90;;;;;;5026101;28;20490;-69
2022/07/01 09:56:46;;;;;;;1.50;1.40;;;19.10;99.90;;;;;;5041699;28;20664;-68
2022/07/01 09:59:12;;;;;;;1.83;1.50;;;19.20;99.90;;;;;;5027457;28;20513;-69
2022/07/01 10:01:39;;;;;;;1.73;1.63;;;19.30;99.90;;;;;;5025514;28;20277;-69
2022/07/01 10:04:08;;;;;;;2.20;1.67;;;19.40;99.90;;;;;;5033894;28;20240;-69
2022/07/01 10:06:42;;;;;;;1.30;1.20;;;19.50;99.90;;;;;;5036374;28;20530;-70
2022/07/01 10:09:35;;;;;;;2.67;1.53;;;19.50;99.90;;;;;;5032150;28;20466;-69
2022/07/01 10:12:31;;;;;;;1.40;1.40;;;19.60;99.90;;;;;;5048349;28;20990;-69
2022/07/01 10:14:59;;;;;;;1.63;1.53;;;19.60;99.90;;;;;;5040438;28;20461;-69
2022/07/01 10:17:36;;;;;;;1.97;1.13;;;19.50;99.90;;;;;;5030419;28;20459;-69
2022/07/01 10:20:27;;;;;;;1.60;1.50;;;19.60;99.90;;;;;;5024600;28;20459;-69
2022/07/01 10:23:05;;;;;;;1.50;1.30;;;19.60;99.90;;;;;;5046749;28;20473;-69
2022/07/01 10:25:47;;;;;;;1.50;1.40;;;19.60;99.90;;;;;;5034157;28;20489;-69
2022/07/01 10:28:24;;;;;;;1.13;1.13;;;19.70;99.90;;;;;;5028794;28;21045;-69
2022/07/01 10:31:04;;;;;;;1.80;1.70;;;19.70;99.90;;;;;;5048299;28;20470;-69
2022/07/01 10:33:33;;;;;;;4.93;1.63;;;19.80;99.90;;;;;;5051199;28;20459;-69
2022/07/01 10:36:24;;;;;;;1.27;1.27;;;19.90;99.90;;;;;;5024721;28;20459;-69
2022/07/01 10:39:09;;;;;;;1.90;1.40;;;19.90;99.90;;;;;;5036829;28;20454;-69
2022/07/01 10:41:53;;;;;;;1.67;1.57;;;20.00;99.90;;;;;;5045478;28;20466;-70
2022/07/01 10:44:20;;;;;;;2.07;1.83;;;20.00;99.40;;;;;;5037725;28;20474;-70
2022/07/01 10:46:57;;;;;;;1.60;1.50;;;20.10;99.90;;;;;;5039668;28;20494;-69
2022/07/01 10:49:35;;;;;;;1.20;1.10;;;20.20;99.90;;;;;;5044725;28;21025;-69
2022/07/01 10:52:03;;;;;;;2.00;1.30;;;20.30;99.90;;;;;;5021596;28;20443;-69
2022/07/01 10:54:35;;;;;;;;;;;;;;;;;;;;;
2022/07/01 10:57:19;;;;;;;1.93;1.10;;;20.50;99.90;;;;;;5044543;28;20492;-70
2022/07/01 10:59:48;;;;;;;1.20;1.10;;;20.60;99.60;;;;;;5037666;28;20512;-70
2022/07/01 11:02:34;;;;;;;1.90;1.30;;;20.60;99.80;;;;;;5020407;28;20452;-70
2022/07/01 11:05:09;;;;;;;1.93;1.30;;;20.60;99.80;;;;;;5036476;28;20447;-69
2022/07/01 11:07:38;;;;;;;2.77;1.60;;;20.70;99.70;;;;;;5031452;28;20467;-69
2022/07/01 11:10:07;;;;;;;1.63;1.53;;;20.60;99.50;;;;;;5040066;28;20466;-69
2022/07/01 11:12:33;;;;;;;1.50;1.40;;;20.70;99.10;;;;;;5038347;28;20444;-69
2022/07/01 11:15:05;;;;;;;1.50;1.40;;;20.70;98.80;;;;;;5016035;28;20954;-70
2022/07/01 11:17:31;;;;;;;1.80;1.70;;;20.70;98.90;;;;;;5041267;28;20958;-69
2022/07/01 11:19:59;;;;;;;1.30;1.20;;;20.70;99.00;;;;;;5040621;28;20474;-70
2022/07/01 11:22:27;;;;;;;2.97;1.53;;;20.80;98.70;;;;;;5035134;28;20454;-69
2022/07/01 11:24:58;;;;;;;1.63;1.50;;;20.90;98.60;;;;;;5035037;28;20447;-69
2022/07/01 11:27:25;;;;;;;1.30;1.20;;;20.90;98.70;;;;;;5037940;28;20465;-69
2022/07/01 11:29:58;;;;;;;1.43;1.33;;;20.90;98.20;;;;;;5045660;28;20863;-69
2022/07/01 11:32:29;;;;;;;1.70;1.30;;;20.90;98.30;;;;;;5055674;28;20452;-69
2022/07/01 11:34:56;;;;;;;1.50;1.40;;;20.90;98.00;;;;;;5031265;28;20448;-69
2022/07/01 11:40:13;;;;;;;1.23;1.23;;;20.90;98.00;;;;;;5047316;28;20439;-69
2022/07/01 11:42:39;;;;;;;1.13;1.13;;;21.00;98.10;;;;;;5023983;28;20458;-69
2022/07/01 11:45:05;;;;;;;0.97;0.97;;;21.00;97.50;;;;;;5031232;28;20465;-69
2022/07/01 11:47:31;;;;;;;2.40;1.20;;;21.10;97.10;;;;;;5052274;28;20454;-70
2022/07/01 11:49:58;;;;;;;4.63;1.30;;;21.10;96.70;;;;;;5052759;28;20455;-70
2022/07/01 11:52:24;;;;;;;1.30;1.20;;;21.10;97.20;;;;;;5037428;28;20700;-70
2022/07/01 11:54:53;;;;;;;2.20;1.40;;;21.20;97.30;;;;;;5045473;28;20553;-69
2022/07/01 11:57:23;;;;;;;2.30;1.13;;;21.20;97.20;;;;;;5053655;28;20470;-69
2022/07/01 11:59:51;;;;;;;1.53;1.37;;;21.30;97.30;;;;;;5035845;28;20482;-69
2022/07/01 12:02:21;;;;;;;1.10;1.10;;;21.30;97.30;;;;;;5048293;28;20451;-69
2022/07/01 12:04:48;;;;;;;1.50;1.40;;;21.40;97.20;;;;;;5053903;28;20966;-69
2022/07/01 12:07:15;;;;;;;1.30;1.20;;;21.50;97.60;;;;;;5047556;28;20556;-69
2022/07/01 12:09:42;;;;;;;1.73;1.33;;;21.60;97.10;;;;;;5043446;28;20836;-69
2022/07/01 12:12:16;;;;;;;1.40;1.30;;;21.80;97.40;;;;;;5053092;28;20454;-69
2022/07/01 12:14:53;;;;;;;1.63;1.53;;;21.90;97.30;;;;;;5068052;28;20454;-68
2022/07/01 12:17:19;;;;;;;1.20;1.10;;;21.90;97.40;;;;;;5044549;28;20516;-69
2022/07/01 12:19:47;;;;;;;1.30;1.20;;;22.00;96.80;;;;;;5043488;28;20459;-70
2022/07/01 12:22:15;;;;;;;1.40;1.33;;;22.00;95.60;;;;;;5042197;28;20484;-69
2022/07/01 12:24:41;;;;;;;2.00;1.20;;;22.00;96.00;;;;;;5035213;28;20473;-68
2022/07/01 12:27:09;;;;;;;1.27;1.17;;;22.10;96.50;;;;;;5042945;28;20453;-70
2022/07/01 12:29:46;;;;;;;3.10;1.30;;;22.10;96.00;;;;;;5038490;28;20800;-69
2022/07/01 12:32:14;;;;;;;1.13;1.00;;;22.20;95.90;;;;;;5028803;28;20971;-69
2022/07/01 12:34:42;;;;;;;1.10;1.00;;;22.30;95.10;;;;;;5044766;28;20466;-69
2022/07/01 12:37:20;;;;;;;1.47;1.30;;;22.30;94.50;;;;;;5020598;28;20988;-70
2022/07/01 12:40:03;;;;;;;1.87;1.40;;;22.30;94.30;;;;;;5041596;28;20446;-69
2022/07/01 12:42:33;;;;;;;1.00;1.00;;;22.30;94.50;;;;;;5039879;28;20469;-69
2022/07/01 12:45:08;;;;;;;1.97;1.30;;;22.30;94.30;;;;;;5044080;28;20946;-69
2022/07/01 12:47:39;;;;;;;1.40;1.30;;;22.30;94.00;;;;;;5038774;28;20512;-68
2022/07/01 12:50:10;;;;;;;1.30;1.20;;;22.20;94.30;;;;;;5043920;28;20450;-70
2022/07/01 12:52:41;;;;;;;0.90;0.90;;;22.20;94.50;;;;;;5050039;28;20462;-70
2022/07/01 12:55:18;;;;;;;2.33;1.03;;;22.10;93.30;;;;;;5029278;28;20462;-70
2022/07/01 12:57:49;;;;;;;1.10;1.00;;;22.00;93.90;;;;;;5048931;28;20454;-69
2022/07/01 13:00:17;;;;;;;1.70;1.40;;;22.00;94.90;;;;;;5042480;28;20460;-70
2022/07/01 13:02:42;;;;;;;1.43;1.10;;;22.00;95.30;;;;;;5048681;28;21031;-68
2022/07/01 13:05:08;;;;;;;3.20;1.63;;;22.00;95.50;;;;;;5054175;28;20446;-69